Time;durP1;ratioP1;P1;durP2;ratioP2;P2;SDS_P1;SDS_P2;PMS_P1;PMS_P2;Temp;Humidity;BMP_temperature;BMP_pressure;BME280_temperature;BME280_humidity;BME280_pressure;Samples;Min_cycle;Max_cycle;Signal;HPM_P1;HPM_P2
2023/03/16 00:00:46;;;;;;;6.30;2.10;;;3.80;99.90;;;;;;5104990;28;20445;-82
2023/03/16 00:03:17;;;;;;;5.65;2.78;;;3.80;99.90;;;;;;5108200;28;20035;-82
2023/03/16 00:05:50;;;;;;;6.22;2.78;;;3.80;99.90;;;;;;5106622;28;20695;-83
2023/03/16 00:08:17;;;;;;;4.72;2.08;;;3.70;99.90;;;;;;5088819;28;20074;-83
2023/03/16 00:10:46;;;;;;;4.93;2.10;;;3.70;99.90;;;;;;5108888;28;20035;-83
2023/03/16 00:13:16;;;;;;;6.95;2.45;;;3.80;99.90;;;;;;5108149;28;20372;-82
2023/03/16 00:15:52;;;;;;;8.05;2.35;;;3.70;99.90;;;;;;5105828;28;20044;-82
2023/03/16 00:18:18;;;;;;;4.30;2.35;;;3.80;99.90;;;;;;5088149;28;20044;-82
2023/03/16 00:20:43;;;;;;;8.18;2.50;;;3.80;99.90;;;;;;5093826;28;20666;-83
2023/03/16 00:23:09;;;;;;;5.50;2.20;;;3.80;99.90;;;;;;5093365;28;20407;-82
2023/03/16 00:25:34;;;;;;;4.57;2.20;;;3.80;99.90;;;;;;5104383;28;20032;-82
2023/03/16 00:28:03;;;;;;;4.25;2.28;;;3.80;99.90;;;;;;5109521;28;20399;-82
2023/03/16 00:30:30;;;;;;;5.35;2.33;;;3.80;99.90;;;;;;5092084;28;20061;-82
2023/03/16 00:32:55;;;;;;;5.07;2.08;;;3.80;99.90;;;;;;5105537;28;20067;-82
2023/03/16 00:35:21;;;;;;;9.30;2.40;;;3.70;99.90;;;;;;5101151;28;20051;-82
2023/03/16 00:37:46;;;;;;;4.60;2.70;;;3.70;99.90;;;;;;5104758;28;20043;-82
2023/03/16 00:40:12;;;;;;;5.75;2.63;;;3.70;99.90;;;;;;5094945;28;20039;-82
2023/03/16 00:42:38;;;;;;;3.83;2.42;;;3.70;99.90;;;;;;5108666;28;20118;-82
2023/03/16 00:45:04;;;;;;;6.90;2.58;;;3.80;99.90;;;;;;5089773;28;20372;-82
2023/03/16 00:47:31;;;;;;;7.45;2.60;;;3.80;99.90;;;;;;5104937;28;20032;-82
2023/03/16 00:49:58;;;;;;;4.88;2.53;;;3.80;99.90;;;;;;5100775;28;20380;-82
2023/03/16 00:52:26;;;;;;;4.82;2.38;;;3.80;99.90;;;;;;5112201;28;20028;-82
2023/03/16 00:54:52;;;;;;;5.75;2.30;;;3.80;99.90;;;;;;5111965;28;20189;-82
2023/03/16 00:57:19;;;;;;;4.72;2.58;;;3.80;99.90;;;;;;5106789;28;20050;-82
2023/03/16 00:59:45;;;;;;;3.97;2.20;;;3.80;99.90;;;;;;5107101;28;20040;-82
2023/03/16 01:02:11;;;;;;;4.43;2.45;;;3.80;99.90;;;;;;5111079;28;20044;-82
2023/03/16 01:04:38;;;;;;;5.57;2.75;;;3.80;99.90;;;;;;5090636;28;20522;-82
2023/03/16 01:07:05;;;;;;;5.90;2.70;;;3.80;99.90;;;;;;5107582;28;20444;-82
2023/03/16 01:09:35;;;;;;;4.82;2.28;;;3.80;99.90;;;;;;5110591;28;20032;-82
2023/03/16 01:12:07;;;;;;;6.38;2.85;;;3.70;99.90;;;;;;5101578;28;20032;-82
2023/03/16 01:14:33;;;;;;;7.82;2.55;;;3.70;99.90;;;;;;5108651;28;20038;-82
2023/03/16 01:17:00;;;;;;;6.43;2.70;;;3.70;99.90;;;;;;5103612;28;20023;-82
2023/03/16 01:19:26;;;;;;;5.75;2.50;;;3.70;99.90;;;;;;5112728;28;20032;-82
2023/03/16 01:21:52;;;;;;;8.05;2.63;;;3.70;99.90;;;;;;5090992;28;20379;-81
2023/03/16 01:24:18;;;;;;;4.97;2.40;;;3.70;99.90;;;;;;5092224;28;20036;-82
2023/03/16 01:26:43;;;;;;;5.20;2.80;;;3.70;99.90;;;;;;5140291;27;20031;-82
2023/03/16 01:29:11;;;;;;;5.65;3.00;;;3.70;99.90;;;;;;5110603;28;20061;-82
2023/03/16 01:31:36;;;;;;;6.97;3.15;;;3.70;99.90;;;;;;5095173;28;20044;-82
2023/03/16 01:34:02;;;;;;;7.53;3.08;;;3.70;99.90;;;;;;5106083;28;20064;-82
2023/03/16 01:36:28;;;;;;;5.10;2.30;;;3.70;99.90;;;;;;5092924;28;20027;-82
2023/03/16 01:38:54;;;;;;;10.82;2.88;;;3.70;99.90;;;;;;5103977;28;20040;-82
2023/03/16 01:41:20;;;;;;;7.00;2.60;;;3.60;99.90;;;;;;5141064;27;20038;-82
2023/03/16 01:43:46;;;;;;;9.20;2.88;;;3.60;99.90;;;;;;5105582;28;20043;-82
2023/03/16 01:46:17;;;;;;;8.68;3.08;;;3.60;99.90;;;;;;5105650;28;20515;-82
2023/03/16 01:49:09;;;;;;;6.57;3.10;;;3.60;99.90;;;;;;5105397;28;20524;-82
2023/03/16 01:51:59;;;;;;;5.68;2.92;;;3.50;99.90;;;;;;5106009;28;20071;-82
2023/03/16 01:54:28;;;;;;;6.38;2.80;;;3.50;99.90;;;;;;5090735;28;20110;-82
2023/03/16 01:57:07;;;;;;;7.85;3.13;;;3.50;99.90;;;;;;5111317;28;20031;-82
2023/03/16 01:59:43;;;;;;;7.05;2.90;;;3.50;99.90;;;;;;5103661;28;20058;-83
2023/03/16 02:02:12;;;;;;;6.55;3.33;;;3.40;99.90;;;;;;5086972;28;20127;-82
2023/03/16 02:04:58;;;;;;;5.57;3.53;;;3.50;99.90;;;;;;5110715;28;20048;-82
2023/03/16 02:07:27;;;;;;;4.55;2.60;;;3.40;99.90;;;;;;5110915;28;20035;-83
2023/03/16 02:09:57;;;;;;;6.85;3.63;;;3.40;99.90;;;;;;5115707;28;20043;-82
2023/03/16 02:12:23;;;;;;;5.82;3.22;;;3.40;99.90;;;;;;5109447;28;20059;-82
2023/03/16 02:14:49;;;;;;;6.28;3.53;;;3.50;99.90;;;;;;5094055;28;20044;-83
2023/03/16 02:17:20;;;;;;;9.05;3.88;;;3.40;99.90;;;;;;5095243;28;20043;-82
2023/03/16 02:20:06;;;;;;;5.40;3.30;;;3.40;99.90;;;;;;5097313;28;20088;-83
2023/03/16 02:22:35;;;;;;;7.28;3.97;;;3.50;99.90;;;;;;5115781;28;20418;-82
2023/03/16 02:25:01;;;;;;;5.10;3.10;;;3.40;99.90;;;;;;5109831;28;20053;-83
2023/03/16 02:27:39;;;;;;;5.40;3.10;;;3.50;99.90;;;;;;5113747;28;20061;-83
2023/03/16 02:30:15;;;;;;;7.30;3.63;;;3.50;99.90;;;;;;5111002;28;20031;-82
2023/03/16 02:32:42;;;;;;;6.65;3.47;;;3.50;99.90;;;;;;5092869;28;20039;-82
2023/03/16 02:35:09;;;;;;;9.13;3.90;;;3.50;99.90;;;;;;5095910;28;20074;-82
2023/03/16 02:37:34;;;;;;;5.60;3.15;;;3.50;99.90;;;;;;5111125;28;20507;-82
2023/03/16 02:40:08;;;;;;;8.63;3.70;;;3.50;99.90;;;;;;5145979;27;20047;-83
2023/03/16 02:42:34;;;;;;;;;;;3.50;99.90;;;;;;5093716;28;20039;-83
2023/03/16 02:45:00;;;;;;;4.93;3.47;;;3.50;99.90;;;;;;5125873;27;19927;-83
2023/03/16 02:47:50;;;;;;;6.70;3.47;;;3.60;99.90;;;;;;5093709;28;20432;-83
2023/03/16 02:50:16;;;;;;;8.32;4.20;;;3.60;99.90;;;;;;5142770;27;20775;-82
2023/03/16 02:52:42;;;;;;;7.82;3.90;;;4.40;99.90;;;;;;5140679;27;20032;-82
2023/03/16 02:55:08;;;;;;;6.63;4.28;;;3.60;99.90;;;;;;5109162;28;20063;-83
2023/03/16 02:57:34;;;;;;;7.38;4.43;;;3.60;99.90;;;;;;5105587;28;20521;-83
2023/03/16 03:00:00;;;;;;;8.05;4.18;;;3.70;99.90;;;;;;5111376;28;20043;-83
2023/03/16 03:02:25;;;;;;;6.45;3.85;;;3.70;99.90;;;;;;5109052;28;20051;-83
2023/03/16 03:04:53;;;;;;;8.68;4.78;;;3.70;99.90;;;;;;5091903;28;20043;-84
2023/03/16 03:07:20;;;;;;;6.85;4.10;;;3.70;99.90;;;;;;5124589;28;20057;-82
2023/03/16 03:09:46;;;;;;;9.40;4.35;;;3.70;99.90;;;;;;5089940;28;20040;-83
2023/03/16 03:12:12;;;;;;;6.60;4.15;;;3.70;99.90;;;;;;5109822;28;20028;-83
2023/03/16 03:14:38;;;;;;;8.63;4.10;;;3.70;99.90;;;;;;5108439;28;20047;-82
2023/03/16 03:17:08;;;;;;;7.45;4.30;;;3.70;99.90;;;;;;5090285;28;20027;-83
2023/03/16 03:19:34;;;;;;;10.13;4.32;;;3.70;99.90;;;;;;5113290;28;20406;-83
2023/03/16 03:22:03;;;;;;;8.15;4.10;;;3.80;99.90;;;;;;5108651;28;20038;-83
2023/03/16 03:24:30;;;;;;;8.00;4.43;;;3.80;99.90;;;;;;5107789;28;20111;-83
2023/03/16 03:26:56;;;;;;;7.18;4.30;;;4.00;99.90;;;;;;5092723;28;20044;-82
2023/03/16 03:29:21;;;;;;;7.95;3.97;;;3.80;99.90;;;;;;5122749;28;20376;-83
2023/03/16 03:31:47;;;;;;;8.30;4.10;;;3.80;99.90;;;;;;5111270;28;20089;-83
2023/03/16 03:34:12;;;;;;;6.43;4.43;;;3.80;99.90;;;;;;5108669;28;20517;-83
2023/03/16 03:36:38;;;;;;;6.68;4.03;;;3.90;99.90;;;;;;5110957;28;20087;-82
2023/03/16 03:39:03;;;;;;;6.78;4.13;;;3.80;99.90;;;;;;5090264;28;20036;-82
2023/03/16 03:41:31;;;;;;;8.32;4.35;;;3.80;99.90;;;;;;5089273;28;20448;-82
2023/03/16 03:43:58;;;;;;;8.02;4.32;;;3.80;99.90;;;;;;5115127;28;20217;-82
2023/03/16 03:46:24;;;;;;;8.02;4.20;;;3.80;99.90;;;;;;5089782;28;20036;-82
2023/03/16 03:48:49;;;;;;;6.80;3.92;;;3.80;99.90;;;;;;5107082;28;20040;-82
2023/03/16 03:51:15;;;;;;;6.50;3.72;;;3.80;99.90;;;;;;5096477;28;20483;-83
2023/03/16 03:53:40;;;;;;;7.43;3.83;;;3.80;99.90;;;;;;5106921;28;20541;-83
2023/03/16 03:56:06;;;;;;;9.07;4.00;;;3.80;99.90;;;;;;5055854;28;1059289;-82
2023/03/16 03:58:32;;;;;;;6.57;4.32;;;3.80;99.90;;;;;;5108347;28;20044;-82
2023/03/16 04:00:57;;;;;;;5.65;3.55;;;3.80;99.90;;;;;;5107110;28;20627;-83
2023/03/16 04:03:23;;;;;;;5.63;3.72;;;3.80;99.90;;;;;;5145211;27;20038;-83
2023/03/16 04:05:48;;;;;;;7.75;4.43;;;3.90;99.90;;;;;;5097834;28;20048;-82
2023/03/16 04:08:14;;;;;;;6.85;3.80;;;3.80;99.90;;;;;;5115051;28;20093;-83
2023/03/16 04:10:39;;;;;;;6.88;3.80;;;3.90;99.90;;;;;;5108445;28;20408;-83
2023/03/16 04:13:05;;;;;;;6.43;3.72;;;3.90;99.90;;;;;;5092857;28;20101;-83
2023/03/16 04:15:32;;;;;;;4.93;3.63;;;3.90;99.90;;;;;;5145057;27;20517;-82
2023/03/16 04:17:58;;;;;;;5.15;3.50;;;3.90;99.90;;;;;;5085848;28;20503;-83
2023/03/16 04:20:24;;;;;;;5.65;3.50;;;3.90;99.90;;;;;;5144266;27;20035;-83
2023/03/16 04:22:57;;;;;;;6.55;3.70;;;3.90;99.90;;;;;;5144248;27;20110;-82
2023/03/16 04:25:24;;;;;;;7.30;3.90;;;3.90;99.90;;;;;;5109930;28;20043;-82
2023/03/16 04:27:50;;;;;;;6.15;3.55;;;3.90;99.90;;;;;;5143753;27;20035;-82
2023/03/16 04:30:16;;;;;;;5.43;3.55;;;4.00;99.90;;;;;;5112409;28;20040;-82
2023/03/16 04:32:41;;;;;;;5.40;3.28;;;3.90;99.90;;;;;;5146485;27;20027;-82
2023/03/16 04:35:07;;;;;;;6.80;3.40;;;4.20;99.90;;;;;;5143491;27;20114;-82
2023/03/16 04:37:33;;;;;;;4.72;3.13;;;3.90;99.90;;;;;;5108884;28;20040;-82
2023/03/16 04:39:59;;;;;;;5.03;3.42;;;3.90;99.90;;;;;;5127292;27;20071;-82
2023/03/16 04:42:25;;;;;;;5.65;3.20;;;3.90;99.90;;;;;;5088668;28;20047;-82
2023/03/16 04:44:50;;;;;;;6.53;3.40;;;3.90;99.90;;;;;;5095664;28;20035;-82
2023/03/16 04:47:17;;;;;;;7.82;3.75;;;3.90;99.90;;;;;;5105771;28;20027;-82
2023/03/16 04:49:43;;;;;;;6.20;3.67;;;3.90;99.90;;;;;;5111729;28;20486;-83
2023/03/16 04:52:09;;;;;;;7.13;3.50;;;3.90;99.90;;;;;;5089642;28;20023;-83
2023/03/16 04:54:34;;;;;;;8.25;3.67;;;3.90;99.90;;;;;;5144671;27;20066;-83
2023/03/16 04:57:03;;;;;;;8.32;3.80;;;3.90;99.90;;;;;;5087823;28;20301;-82
2023/03/16 04:59:29;;;;;;;5.25;3.53;;;3.90;99.90;;;;;;5101865;28;20036;-82
2023/03/16 05:01:55;;;;;;;8.25;3.25;;;3.90;99.90;;;;;;5146433;27;20039;-82
2023/03/16 05:04:23;;;;;;;6.28;3.30;;;3.90;99.90;;;;;;5104309;28;20039;-82
2023/03/16 05:06:49;;;;;;;7.85;3.47;;;3.90;99.90;;;;;;5094446;28;20126;-82
2023/03/16 05:09:14;;;;;;;7.28;3.80;;;3.90;99.90;;;;;;5105735;28;20062;-82
2023/03/16 05:11:40;;;;;;;5.57;3.30;;;3.90;99.90;;;;;;5091132;28;20135;-83
2023/03/16 05:14:06;;;;;;;8.05;3.58;;;3.90;99.90;;;;;;5104822;28;20036;-83
2023/03/16 05:16:31;;;;;;;7.55;3.72;;;3.90;99.90;;;;;;5106208;28;20055;-82
2023/03/16 05:18:58;;;;;;;6.32;3.90;;;3.90;99.90;;;;;;5087369;28;20043;-83
2023/03/16 05:21:24;;;;;;;6.45;3.65;;;3.90;99.90;;;;;;5094479;28;20462;-82
2023/03/16 05:23:50;;;;;;;5.28;3.47;;;3.90;99.90;;;;;;5145529;27;20075;-83
2023/03/16 05:26:17;;;;;;;5.72;3.70;;;3.90;99.90;;;;;;5106525;28;20078;-82
2023/03/16 05:28:43;;;;;;;5.50;3.50;;;3.90;99.90;;;;;;5106189;28;20549;-82
2023/03/16 05:31:09;;;;;;;5.90;3.50;;;3.90;99.90;;;;;;5110324;28;20060;-82
2023/03/16 05:33:35;;;;;;;7.35;4.13;;;3.90;99.90;;;;;;5106349;28;20031;-82
2023/03/16 05:36:01;;;;;;;8.85;4.40;;;3.90;99.90;;;;;;5111032;28;20032;-84
2023/03/16 05:38:27;;;;;;;5.97;3.75;;;4.00;99.90;;;;;;5107856;28;20071;-83
2023/03/16 05:40:53;;;;;;;8.70;3.92;;;3.90;99.90;;;;;;5105724;28;20070;-83
2023/03/16 05:43:20;;;;;;;5.88;4.00;;;3.90;99.90;;;;;;5106080;28;20039;-83
2023/03/16 05:45:46;;;;;;;5.60;3.60;;;3.90;99.90;;;;;;5105861;28;20118;-83
2023/03/16 05:48:13;;;;;;;5.95;3.72;;;3.90;99.90;;;;;;5123444;28;20127;-83
2023/03/16 05:50:40;;;;;;;9.15;4.05;;;3.90;99.90;;;;;;5107900;28;20044;-83
2023/03/16 05:53:06;;;;;;;10.25;3.97;;;3.90;99.90;;;;;;5111154;28;20076;-83
2023/03/16 05:55:31;;;;;;;8.23;4.20;;;4.00;99.90;;;;;;5142938;27;20037;-82
2023/03/16 05:57:57;;;;;;;9.30;4.30;;;4.00;99.90;;;;;;5105635;28;20397;-82
2023/03/16 06:00:24;;;;;;;7.63;4.40;;;4.00;99.90;;;;;;5107663;28;20452;-82
2023/03/16 06:02:50;;;;;;;6.45;3.72;;;4.00;99.90;;;;;;5103450;28;20043;-82
2023/03/16 06:05:18;;;;;;;7.78;4.20;;;4.00;99.90;;;;;;5097274;28;20032;-82
2023/03/16 06:07:44;;;;;;;5.72;3.75;;;4.00;99.90;;;;;;5111008;28;20064;-83
2023/03/16 06:10:11;;;;;;;6.53;4.40;;;3.80;99.90;;;;;;5127512;28;20051;-82
2023/03/16 06:12:37;;;;;;;7.35;3.83;;;4.00;99.90;;;;;;5093420;28;20080;-82
2023/03/16 06:15:06;;;;;;;6.63;4.10;;;4.00;99.90;;;;;;5107184;28;20040;-82
2023/03/16 06:17:32;;;;;;;7.82;3.92;;;4.00;99.90;;;;;;5094214;28;20257;-82
2023/03/16 06:19:58;;;;;;;9.88;5.03;;;4.00;99.90;;;;;;5110386;28;20111;-83
2023/03/16 06:22:23;;;;;;;8.10;4.80;;;4.00;99.90;;;;;;5143236;27;20526;-82
2023/03/16 06:24:50;;;;;;;6.53;4.13;;;4.00;99.90;;;;;;5113082;28;20048;-83
2023/03/16 06:27:17;;;;;;;7.50;4.50;;;4.00;99.90;;;;;;5107449;28;20039;-83
2023/03/16 06:29:42;;;;;;;8.57;4.53;;;4.10;99.90;;;;;;5124431;27;20039;-83
2023/03/16 06:32:08;;;;;;;7.13;4.10;;;4.00;99.90;;;;;;5139303;27;20406;-83
2023/03/16 06:34:34;;;;;;;6.22;4.40;;;4.00;99.90;;;;;;5108933;28;20081;-83
2023/03/16 06:36:59;;;;;;;7.63;4.10;;;4.10;99.90;;;;;;5122806;28;20059;-83
2023/03/16 06:39:25;;;;;;;6.07;4.70;;;4.10;99.90;;;;;;5106542;28;20075;-83
2023/03/16 06:41:50;;;;;;;7.35;4.40;;;4.10;99.90;;;;;;5142074;27;20032;-83
2023/03/16 06:44:16;;;;;;;7.25;4.18;;;4.10;99.90;;;;;;5093729;28;20032;-83
2023/03/16 06:46:41;;;;;;;6.97;4.22;;;4.10;99.90;;;;;;5143699;27;20128;-82
2023/03/16 06:49:07;;;;;;;8.00;4.20;;;4.20;99.90;;;;;;5108509;28;20039;-83
2023/03/16 06:51:32;;;;;;;9.00;4.35;;;4.20;99.90;;;;;;5108039;28;20118;-83
2023/03/16 06:53:58;;;;;;;8.07;4.30;;;4.20;99.90;;;;;;5124812;27;20189;-83
2023/03/16 06:56:26;;;;;;;4.65;3.75;;;4.20;99.90;;;;;;5145199;27;20032;-83
2023/03/16 06:58:52;;;;;;;7.45;4.18;;;4.20;99.90;;;;;;5116194;28;20043;-83
2023/03/16 07:01:17;;;;;;;7.15;4.35;;;4.30;99.90;;;;;;5115756;28;20036;-83
2023/03/16 07:03:43;;;;;;;9.00;4.40;;;4.30;99.90;;;;;;5107359;28;20517;-83
2023/03/16 07:06:09;;;;;;;5.35;4.10;;;4.30;99.90;;;;;;5140264;27;20036;-83
2023/03/16 07:08:34;;;;;;;7.28;3.92;;;4.40;99.90;;;;;;5089336;28;20561;-83
2023/03/16 07:11:00;;;;;;;8.43;4.70;;;4.40;99.90;;;;;;5110189;28;20020;-83
2023/03/16 07:13:26;;;;;;;6.57;4.03;;;4.40;99.90;;;;;;5144006;27;20084;-84
2023/03/16 07:15:52;;;;;;;9.00;4.60;;;4.50;99.90;;;;;;5143502;27;20054;-83
2023/03/16 07:18:18;;;;;;;6.47;3.67;;;4.50;99.90;;;;;;5109414;28;20034;-83
2023/03/16 07:20:44;;;;;;;8.93;4.22;;;4.50;99.90;;;;;;5116100;28;20040;-82
2023/03/16 07:23:09;;;;;;;7.78;4.03;;;4.50;99.90;;;;;;5092576;28;20036;-82
2023/03/16 07:25:35;;;;;;;6.68;3.92;;;4.50;99.90;;;;;;5108283;28;20044;-82
2023/03/16 07:28:02;;;;;;;4.82;3.60;;;4.60;99.90;;;;;;5092962;28;20032;-83
2023/03/16 07:30:28;;;;;;;6.50;4.50;;;4.60;99.90;;;;;;5108199;28;20485;-83
2023/03/16 07:32:54;;;;;;;5.40;3.97;;;4.90;99.90;;;;;;5110077;28;20036;-83
2023/03/16 07:35:20;;;;;;;9.93;3.80;;;4.70;99.90;;;;;;5094005;28;20027;-83
2023/03/16 07:37:46;;;;;;;5.07;3.50;;;4.70;99.90;;;;;;5112900;27;20043;-83
2023/03/16 07:40:13;;;;;;;5.45;3.72;;;4.70;99.90;;;;;;5111503;27;20044;-83
2023/03/16 07:42:39;;;;;;;5.80;3.60;;;4.80;99.90;;;;;;5108182;28;20040;-82
2023/03/16 07:45:06;;;;;;;8.40;3.90;;;4.80;99.90;;;;;;5111618;28;20123;-82
2023/03/16 07:47:32;;;;;;;7.60;3.90;;;4.80;99.90;;;;;;5110163;27;20055;-83
2023/03/16 07:49:58;;;;;;;7.25;3.70;;;4.90;99.90;;;;;;5131106;27;20054;-83
2023/03/16 07:52:24;;;;;;;8.95;4.18;;;4.90;99.90;;;;;;5110936;28;20039;-84
2023/03/16 07:54:50;;;;;;;5.70;3.47;;;5.00;99.90;;;;;;5107472;28;20036;-83
2023/03/16 07:57:15;;;;;;;5.53;3.85;;;5.00;99.90;;;;;;5086817;28;20051;-82
2023/03/16 07:59:42;;;;;;;6.22;3.65;;;5.00;99.90;;;;;;5095704;28;20046;-82
2023/03/16 08:02:13;;;;;;;5.57;3.67;;;5.10;99.90;;;;;;5098224;28;20031;-83
2023/03/16 08:04:41;;;;;;;7.28;4.45;;;5.10;99.90;;;;;;5144813;27;20047;-82
2023/03/16 08:07:08;;;;;;;8.15;4.18;;;5.10;99.90;;;;;;5113196;28;20028;-82
2023/03/16 08:09:34;;;;;;;7.75;3.72;;;4.80;99.90;;;;;;5113220;27;20063;-81
2023/03/16 08:12:02;;;;;;;7.10;4.03;;;5.00;99.90;;;;;;5105546;28;20061;-82
2023/03/16 08:14:28;;;;;;;5.82;3.58;;;5.10;99.90;;;;;;5109509;28;20419;-82
2023/03/16 08:16:54;;;;;;;6.75;3.88;;;5.00;99.90;;;;;;5118562;27;20039;-82
2023/03/16 08:19:19;;;;;;;6.35;3.65;;;5.00;99.90;;;;;;5124456;27;20042;-82
2023/03/16 08:21:45;;;;;;;6.40;3.85;;;5.00;99.90;;;;;;5115008;28;20494;-83
2023/03/16 08:24:10;;;;;;;6.82;3.95;;;5.00;99.90;;;;;;5106492;27;20043;-83
2023/03/16 08:26:36;;;;;;;7.28;3.95;;;4.90;99.90;;;;;;5122527;27;20032;-82
2023/03/16 08:29:02;;;;;;;8.25;4.75;;;4.90;99.90;;;;;;5091608;28;20046;-82
2023/03/16 08:31:29;;;;;;;5.75;4.10;;;5.00;99.90;;;;;;5113048;28;20503;-82
2023/03/16 08:33:55;;;;;;;6.78;4.32;;;5.00;99.90;;;;;;5115172;27;20542;-82
2023/03/16 08:36:21;;;;;;;6.78;4.15;;;5.00;99.90;;;;;;5103292;28;20088;-82
2023/03/16 08:38:47;;;;;;;7.95;4.03;;;5.00;99.90;;;;;;5112435;28;20504;-82
2023/03/16 08:41:15;;;;;;;7.82;4.10;;;5.00;99.90;;;;;;5115891;27;20039;-83
2023/03/16 08:43:41;;;;;;;8.57;4.55;;;5.00;99.90;;;;;;5096452;28;20112;-83
2023/03/16 08:46:06;;;;;;;7.70;4.15;;;5.00;99.90;;;;;;5100600;28;20040;-83
2023/03/16 08:48:33;;;;;;;6.53;4.00;;;5.00;99.90;;;;;;5094605;28;20161;-82
2023/03/16 08:51:03;;;;;;;7.35;4.18;;;5.00;99.90;;;;;;5110087;28;20043;-82
2023/03/16 08:53:29;;;;;;;7.15;4.38;;;5.00;99.90;;;;;;5085285;28;20044;-82
2023/03/16 08:56:08;;;;;;;5.45;3.83;;;5.00;99.90;;;;;;5110288;28;20563;-82
2023/03/16 08:58:35;;;;;;;6.13;3.95;;;5.10;99.90;;;;;;5112981;27;20094;-82
2023/03/16 09:01:02;;;;;;;4.90;3.90;;;5.00;99.90;;;;;;5109865;28;20044;-83
2023/03/16 09:03:29;;;;;;;7.50;3.78;;;5.10;99.90;;;;;;5093360;28;20040;-82
2023/03/16 09:06:01;;;;;;;9.23;4.30;;;5.10;99.90;;;;;;5119095;27;20054;-82
2023/03/16 09:08:27;;;;;;;6.40;4.22;;;5.10;99.90;;;;;;5111486;28;20032;-83
2023/03/16 09:11:00;;;;;;;7.20;4.05;;;5.10;99.90;;;;;;5121806;27;20040;-83
2023/03/16 09:13:26;;;;;;;8.60;4.70;;;5.10;99.90;;;;;;5107754;27;20040;-83
2023/03/16 09:15:52;;;;;;;9.40;4.68;;;5.10;99.90;;;;;;5104903;28;20070;-82
2023/03/16 09:18:18;;;;;;;8.38;4.80;;;5.10;99.90;;;;;;5130210;27;20086;-84
2023/03/16 09:20:46;;;;;;;7.65;4.50;;;5.10;99.90;;;;;;5087072;28;20047;-83
2023/03/16 09:23:13;;;;;;;9.23;4.63;;;5.20;99.90;;;;;;5106819;28;20100;-83
2023/03/16 09:25:38;;;;;;;8.27;4.20;;;5.10;99.90;;;;;;5104627;28;20040;-83
2023/03/16 09:28:04;;;;;;;7.20;4.40;;;5.10;99.90;;;;;;5105977;27;20038;-84
2023/03/16 09:30:30;;;;;;;7.70;4.57;;;5.20;99.90;;;;;;5111147;27;20035;-83
2023/03/16 09:32:56;;;;;;;7.35;4.30;;;5.30;99.90;;;;;;5102684;28;20107;-83
2023/03/16 09:35:21;;;;;;;10.18;4.20;;;5.30;99.90;;;;;;5108549;27;20046;-83
2023/03/16 09:37:47;;;;;;;6.85;4.57;;;5.40;99.90;;;;;;5126341;27;20054;-83
2023/03/16 09:40:34;;;;;;;8.38;4.75;;;5.40;99.90;;;;;;5102571;28;20042;-83
2023/03/16 09:43:08;;;;;;;7.47;4.80;;;5.50;99.90;;;;;;5093384;28;20031;-83
2023/03/16 09:45:55;;;;;;;8.55;4.53;;;5.60;99.90;;;;;;5083927;28;20040;-83
2023/03/16 09:48:21;;;;;;;8.00;4.35;;;5.70;99.90;;;;;;5095830;28;20027;-84
2023/03/16 09:50:47;;;;;;;7.97;4.47;;;5.70;99.90;;;;;;5103715;28;20036;-83
2023/03/16 09:53:31;;;;;;;6.07;4.45;;;5.80;99.90;;;;;;5106677;28;20034;-82
2023/03/16 09:56:26;;;;;;;6.32;4.15;;;5.80;99.90;;;;;;5099149;28;20123;-83
2023/03/16 09:58:51;;;;;;;7.28;4.53;;;5.70;99.90;;;;;;5104528;28;20113;-82
2023/03/16 10:01:40;;;;;;;7.60;4.55;;;5.80;99.90;;;;;;5111238;28;20132;-83
2023/03/16 10:04:15;;;;;;;8.60;4.68;;;5.80;99.90;;;;;;5126934;27;20043;-84
2023/03/16 10:07:03;;;;;;;7.80;4.50;;;5.80;99.90;;;;;;5095477;28;20040;-84
2023/03/16 10:09:33;;;;;;;8.93;4.63;;;5.80;99.90;;;;;;5088984;28;20047;-84
2023/03/16 10:12:01;;;;;;;8.57;4.97;;;5.80;99.90;;;;;;5101052;28;20032;-84
2023/03/16 10:14:43;;;;;;;8.63;4.60;;;5.80;99.90;;;;;;5090498;28;20036;-84
2023/03/16 10:17:36;;;;;;;7.60;4.70;;;5.80;99.90;;;;;;5111766;28;20088;-84
2023/03/16 10:20:07;;;;;;;11.05;4.82;;;5.80;99.90;;;;;;5091270;28;20126;-84
2023/03/16 10:22:41;;;;;;;7.97;4.78;;;5.90;99.90;;;;;;5104876;28;20044;-84
2023/03/16 10:25:17;;;;;;;8.60;4.45;;;5.80;99.90;;;;;;5099651;27;20039;-84
2023/03/16 10:27:44;;;;;;;6.25;4.38;;;5.80;99.90;;;;;;5113911;27;20043;-83
2023/03/16 10:30:29;;;;;;;8.75;4.38;;;5.80;99.90;;;;;;5102418;28;20524;-83
2023/03/16 10:32:59;;;;;;;7.68;4.43;;;5.80;99.90;;;;;;5113664;27;20028;-83
2023/03/16 10:35:33;;;;;;;6.50;4.07;;;5.80;99.90;;;;;;5091884;27;20074;-84
2023/03/16 10:37:58;;;;;;;10.40;6.05;;;5.80;99.90;;;;;;5111667;27;20036;-84
2023/03/16 10:40:25;;;;;;;10.57;4.65;;;5.80;99.90;;;;;;5096010;27;20035;-85
2023/03/16 10:42:52;;;;;;;9.13;4.70;;;5.80;99.90;;;;;;5091564;28;20674;-84
2023/03/16 10:45:33;;;;;;;7.57;4.40;;;5.90;99.90;;;;;;5124037;27;20368;-83
2023/03/16 10:48:13;;;;;;;7.43;4.65;;;5.90;99.90;;;;;;5087496;28;20118;-84
2023/03/16 10:50:40;;;;;;;9.25;4.65;;;5.90;99.90;;;;;;5131691;27;20123;-85
2023/03/16 10:53:22;;;;;;;5.35;4.00;;;5.90;99.90;;;;;;5089737;28;20066;-84
2023/03/16 10:55:49;;;;;;;10.32;4.60;;;5.90;99.90;;;;;;5116820;27;20050;-83
2023/03/16 10:58:32;;;;;;;9.82;4.80;;;6.00;99.90;;;;;;5113732;27;20439;-85
2023/03/16 11:00:58;;;;;;;7.28;4.22;;;6.00;99.90;;;;;;5111554;27;20466;-84
2023/03/16 11:03:38;;;;;;;8.23;4.15;;;6.00;99.90;;;;;;5099379;28;20032;-84
2023/03/16 11:06:07;;;;;;;6.40;4.18;;;6.00;99.90;;;;;;5096966;27;20134;-83
2023/03/16 11:08:36;;;;;;;6.70;4.30;;;6.10;99.90;;;;;;5111450;27;20038;-83
2023/03/16 11:11:26;;;;;;;6.20;3.97;;;6.10;99.90;;;;;;5108568;27;20043;-83
2023/03/16 11:13:56;;;;;;;9.25;3.72;;;6.20;99.90;;;;;;5114061;27;20540;-83
2023/03/16 11:16:37;;;;;;;7.78;4.03;;;6.20;99.90;;;;;;5106729;27;20038;-83
2023/03/16 11:19:17;;;;;;;7.32;4.15;;;6.30;99.90;;;;;;5133630;27;20039;-83
2023/03/16 11:21:53;;;;;;;6.70;3.78;;;6.40;99.90;;;;;;5105431;27;20081;-82
2023/03/16 11:24:34;;;;;;;7.07;3.80;;;6.50;99.90;;;;;;5133060;27;20040;-82
2023/03/16 11:27:07;;;;;;;5.90;3.47;;;6.60;99.90;;;;;;5130376;27;20035;-83
2023/03/16 11:29:44;;;;;;;5.57;3.67;;;6.60;99.90;;;;;;5114137;28;20406;-82
2023/03/16 11:32:24;;;;;;;5.80;3.58;;;6.70;99.90;;;;;;5105906;28;20035;-82
2023/03/16 11:34:52;;;;;;;7.05;3.67;;;6.80;99.90;;;;;;5088521;28;20040;-83
2023/03/16 11:37:45;;;;;;;9.90;3.92;;;6.80;99.90;;;;;;5108040;27;20063;-83
2023/03/16 11:40:37;;;;;;;6.32;3.95;;;6.80;99.90;;;;;;5113435;27;20031;-83
2023/03/16 11:43:30;;;;;;;6.70;3.70;;;6.90;99.90;;;;;;5101557;27;20077;-83
2023/03/16 11:46:29;;;;;;;8.05;3.63;;;7.00;99.90;;;;;;5124180;27;20555;-83
2023/03/16 11:49:13;;;;;;;6.63;3.60;;;7.10;99.90;;;;;;5098979;28;20039;-84
2023/03/16 11:51:56;;;;;;;5.15;3.40;;;7.20;99.90;;;;;;5117406;27;20031;-83
2023/03/16 11:55:00;;;;;;;5.45;3.38;;;7.30;99.90;;;;;;5097654;28;20059;-83
2023/03/16 11:57:48;;;;;;;5.03;3.42;;;7.40;99.90;;;;;;5103604;28;20465;-84
2023/03/16 12:00:34;;;;;;;5.70;3.45;;;7.40;99.90;;;;;;5109839;28;20074;-82
2023/03/16 12:03:43;;;;;;;6.80;3.33;;;7.50;99.90;;;;;;5109506;27;20088;-83
2023/03/16 12:06:23;;;;;;;7.25;3.70;;;7.60;99.90;;;;;;5107499;28;20036;-83
2023/03/16 12:09:11;;;;;;;5.72;3.10;;;7.80;99.90;;;;;;5110272;27;20042;-83
2023/03/16 12:12:01;;;;;;;7.70;3.38;;;7.90;99.90;;;;;;5115208;27;20036;-83
2023/03/16 12:14:33;;;;;;;6.55;3.65;;;8.10;99.90;;;;;;5094271;27;20040;-82
2023/03/16 12:17:18;;;;;;;4.57;3.35;;;8.20;99.90;;;;;;5105815;27;20036;-82
2023/03/16 12:19:59;;;;;;;5.80;3.22;;;8.30;99.90;;;;;;5106394;28;20040;-83
2023/03/16 12:22:36;;;;;;;5.05;3.30;;;8.30;99.90;;;;;;5106247;28;20071;-83
2023/03/16 12:25:11;;;;;;;6.07;3.42;;;8.30;99.90;;;;;;5102280;28;20043;-84
2023/03/16 12:27:40;;;;;;;5.18;3.45;;;8.40;99.90;;;;;;5107469;28;20063;-84
2023/03/16 12:30:46;;;;;;;6.65;3.58;;;8.40;99.90;;;;;;5108922;27;20122;-85
2023/03/16 12:33:12;;;;;;;6.35;2.85;;;8.50;99.90;;;;;;5111291;27;20251;-82
2023/03/16 12:35:38;;;;;;;5.07;3.67;;;8.50;99.90;;;;;;5089283;28;20580;-84
2023/03/16 12:38:39;;;;;;;6.93;3.70;;;8.60;99.90;;;;;;5097860;27;20039;-84
2023/03/16 12:41:18;;;;;;;9.75;3.13;;;8.80;99.90;;;;;;5114591;27;20043;-83
2023/03/16 12:44:16;;;;;;;4.35;3.15;;;8.90;99.90;;;;;;5105459;28;20047;-83
2023/03/16 12:46:55;;;;;;;8.70;3.10;;;9.00;99.90;;;;;;5099332;28;20556;-82
2023/03/16 12:49:23;;;;;;;4.72;2.90;;;9.00;99.90;;;;;;5092122;28;20122;-82
2023/03/16 12:52:04;;;;;;;6.88;3.22;;;9.00;99.90;;;;;;5097672;28;20122;-82
2023/03/16 12:54:30;;;;;;;5.72;3.13;;;9.10;99.90;;;;;;5099121;27;20035;-82
2023/03/16 12:57:07;;;;;;;4.55;3.05;;;9.00;99.90;;;;;;5090984;28;20042;-82
2023/03/16 12:59:49;;;;;;;6.50;3.10;;;9.00;99.90;;;;;;5115363;27;20089;-83
2023/03/16 13:02:34;;;;;;;5.78;3.28;;;8.90;99.90;;;;;;5086559;28;20040;-82
2023/03/16 13:05:08;;;;;;;6.10;2.88;;;8.90;99.90;;;;;;5082287;28;20111;-83
2023/03/16 13:07:34;;;;;;;;;;;9.10;99.90;;;;;;5108533;27;20379;-83
2023/03/16 13:10:08;;;;;;;5.68;3.00;;;8.90;99.90;;;;;;5109133;28;19915;-82
2023/03/16 13:12:37;;;;;;;5.55;3.20;;;8.80;99.90;;;;;;5095025;27;20087;-82